Time;durP1;ratioP1;P1;durP2;ratioP2;P2;SDS_P1;SDS_P2;PMS_P1;PMS_P2;Temp;Humidity;BMP_temperature;BMP_pressure;BME280_temperature;BME280_humidity;BME280_pressure;Samples;Min_cycle;Max_cycle;Signal;HPM_P1;HPM_P2
2023/01/01 00:00:00;;;;;;;0.8;0.8;;;;;;;14.5;100.0;100590;;;;
2023/01/01 00:01:08;;;;;;;0.8;0.8;;;;;;;14.5;100.0;100590;;;;
2023/01/01 00:02:00;;;;;;;0.8;0.8;;;;;;;14.4;100.0;100590;;;;
2023/01/01 00:03:00;;;;;;;0.8;0.8;;;;;;;14.4;100.0;100590;;;;
2023/01/01 00:04:01;;;;;;;0.8;0.8;;;;;;;14.4;100.0;100590;;;;
2023/01/01 00:05:00;;;;;;;0.8;0.8;;;;;;;14.4;100.0;100590;;;;
2023/01/01 00:06:04;;;;;;;0.8;0.8;;;;;;;14.4;100.0;100590;;;;
2023/01/01 00:07:00;;;;;;;0.8;0.8;;;;;;;14.4;100.0;100590;;;;
2023/01/01 00:08:05;;;;;;;0.8;0.8;;;;;;;14.3;100.0;100580;;;;
2023/01/01 00:11:04;;;;;;;0.8;0.8;;;;;;;14.5;100.0;100590;;;;
2023/01/01 00:12:00;;;;;;;0.8;0.8;;;;;;;14.4;100.0;100590;;;;
2023/01/01 00:13:00;;;;;;;0.8;0.8;;;;;;;14.4;100.0;100590;;;;
2023/01/01 00:14:00;;;;;;;0.8;0.8;;;;;;;14.4;100.0;100590;;;;
2023/01/01 00:15:00;;;;;;;0.8;0.8;;;;;;;14.4;100.0;100610;;;;
2023/01/01 00:16:08;;;;;;;0.8;0.8;;;;;;;14.5;100.0;100610;;;;
2023/01/01 00:17:01;;;;;;;0.8;0.8;;;;;;;14.5;100.0;100610;;;;
2023/01/01 00:18:00;;;;;;;0.8;0.8;;;;;;;14.5;100.0;100610;;;;
2023/01/01 00:19:00;;;;;;;0.8;0.8;;;;;;;14.4;100.0;100610;;;;
2023/01/01 00:20:00;;;;;;;0.5;0.5;;;;;;;14.5;100.0;100600;;;;
2023/01/01 00:21:01;;;;;;;0.5;0.5;;;;;;;14.5;100.0;100600;;;;
2023/01/01 00:22:10;;;;;;;0.5;0.5;;;;;;;14.5;100.0;100600;;;;
2023/01/01 00:23:00;;;;;;;0.5;0.5;;;;;;;14.5;100.0;100600;;;;
2023/01/01 00:24:00;;;;;;;0.5;0.5;;;;;;;14.4;100.0;100610;;;;
2023/01/01 00:25:00;;;;;;;0.5;0.5;;;;;;;14.4;100.0;100610;;;;
2023/01/01 00:26:00;;;;;;;0.5;0.5;;;;;;;14.4;100.0;100610;;;;
2023/01/01 00:27:00;;;;;;;0.5;0.5;;;;;;;14.4;100.0;100610;;;;
2023/01/01 00:28:01;;;;;;;0.5;0.5;;;;;;;14.5;100.0;100600;;;;
2023/01/01 00:29:00;;;;;;;0.5;0.5;;;;;;;14.5;100.0;100600;;;;
2023/01/01 00:30:00;;;;;;;0.5;0.5;;;;;;;14.5;100.0;100610;;;;
2023/01/01 00:31:05;;;;;;;0.5;0.5;;;;;;;14.5;100.0;100610;;;;
2023/01/01 00:32:00;;;;;;;0.5;0.5;;;;;;;14.5;100.0;100610;;;;
2023/01/01 00:33:00;;;;;;;0.5;0.5;;;;;;;14.5;100.0;100610;;;;
2023/01/01 00:34:00;;;;;;;0.5;0.5;;;;;;;14.5;100.0;100600;;;;
2023/01/01 00:35:00;;;;;;;0.5;0.5;;;;;;;14.5;100.0;100600;;;;
2023/01/01 00:36:08;;;;;;;0.5;0.5;;;;;;;14.5;100.0;100610;;;;
2023/01/01 00:37:00;;;;;;;0.5;0.5;;;;;;;14.5;100.0;100610;;;;
2023/01/01 00:38:00;;;;;;;0.5;0.5;;;;;;;14.4;100.0;100600;;;;
2023/01/01 00:39:01;;;;;;;0.5;0.5;;;;;;;14.4;100.0;100600;;;;
2023/01/01 00:40:00;;;;;;;0.8;0.8;;;;;;;14.5;100.0;100600;;;;
2023/01/01 00:41:01;;;;;;;0.8;0.8;;;;;;;14.5;100.0;100600;;;;
2023/01/01 00:42:00;;;;;;;0.8;0.8;;;;;;;14.6;100.0;100610;;;;
2023/01/01 00:43:00;;;;;;;0.8;0.8;;;;;;;14.6;100.0;100610;;;;
2023/01/01 00:44:00;;;;;;;0.8;0.8;;;;;;;14.5;100.0;100590;;;;
2023/01/01 00:45:00;;;;;;;0.8;0.8;;;;;;;14.5;100.0;100590;;;;
2023/01/01 00:46:00;;;;;;;0.8;0.8;;;;;;;14.5;100.0;100600;;;;
2023/01/01 00:47:00;;;;;;;0.8;0.8;;;;;;;14.5;100.0;100600;;;;
2023/01/01 00:48:00;;;;;;;0.8;0.8;;;;;;;14.5;100.0;100590;;;;
2023/01/01 00:49:00;;;;;;;0.8;0.8;;;;;;;14.5;100.0;100590;;;;
2023/01/01 00:50:00;;;;;;;0.8;0.8;;;;;;;14.5;100.0;100600;;;;
2023/01/01 00:51:01;;;;;;;0.8;0.8;;;;;;;14.5;100.0;100600;;;;
2023/01/01 00:52:00;;;;;;;0.8;0.8;;;;;;;14.5;100.0;100590;;;;
2023/01/01 00:53:00;;;;;;;0.8;0.8;;;;;;;14.5;100.0;100590;;;;
2023/01/01 00:54:00;;;;;;;0.8;0.8;;;;;;;14.4;100.0;100590;;;;
2023/01/01 00:55:00;;;;;;;0.8;0.8;;;;;;;14.4;100.0;100590;;;;
2023/01/01 00:56:00;;;;;;;0.8;0.8;;;;;;;14.5;100.0;100590;;;;
2023/01/01 00:57:00;;;;;;;0.8;0.8;;;;;;;14.5;100.0;100590;;;;
2023/01/01 00:58:00;;;;;;;0.8;0.8;;;;;;;14.4;100.0;100590;;;;
2023/01/01 00:59:02;;;;;;;0.8;0.8;;;;;;;14.4;100.0;100590;;;;
2023/01/01 01:00:00;;;;;;;0.4;0.4;;;;;;;14.5;100.0;100610;;;;
2023/01/01 01:01:01;;;;;;;0.4;0.4;;;;;;;14.5;100.0;100610;;;;
2023/01/01 01:02:01;;;;;;;0.4;0.4;;;;;;;14.5;100.0;100600;;;;
2023/01/01 01:03:01;;;;;;;0.4;0.4;;;;;;;14.5;100.0;100600;;;;
2023/01/01 01:04:02;;;;;;;0.4;0.4;;;;;;;14.5;100.0;100590;;;;
2023/01/01 01:05:02;;;;;;;0.4;0.4;;;;;;;14.5;100.0;100590;;;;
2023/01/01 01:06:01;;;;;;;0.4;0.4;;;;;;;14.5;100.0;100600;;;;
2023/01/01 01:07:00;;;;;;;0.4;0.4;;;;;;;14.5;100.0;100600;;;;
2023/01/01 01:08:00;;;;;;;0.4;0.4;;;;;;;14.5;100.0;100590;;;;
2023/01/01 01:09:01;;;;;;;0.4;0.4;;;;;;;14.5;100.0;100590;;;;
2023/01/01 01:10:00;;;;;;;0.4;0.4;;;;;;;14.5;100.0;100610;;;;
2023/01/01 01:11:10;;;;;;;0.4;0.4;;;;;;;14.5;100.0;100610;;;;
2023/01/01 01:12:10;;;;;;;0.4;0.4;;;;;;;14.5;100.0;100610;;;;
2023/01/01 01:13:00;;;;;;;0.4;0.4;;;;;;;14.5;100.0;100610;;;;
2023/01/01 01:14:00;;;;;;;0.4;0.4;;;;;;;14.5;100.0;100620;;;;
2023/01/01 01:15:00;;;;;;;0.4;0.4;;;;;;;14.5;100.0;100620;;;;
2023/01/01 01:16:01;;;;;;;0.4;0.4;;;;;;;14.5;100.0;100610;;;;
2023/01/01 01:17:00;;;;;;;0.4;0.4;;;;;;;14.5;100.0;100610;;;;
2023/01/01 01:18:00;;;;;;;0.4;0.4;;;;;;;14.6;100.0;100630;;;;
2023/01/01 01:19:01;;;;;;;0.4;0.4;;;;;;;14.6;100.0;100630;;;;
2023/01/01 01:20:00;;;;;;;0.5;0.5;;;;;;;14.6;100.0;100630;;;;
2023/01/01 01:21:00;;;;;;;0.5;0.5;;;;;;;14.6;100.0;100630;;;;
2023/01/01 01:22:00;;;;;;;0.5;0.5;;;;;;;14.6;100.0;100620;;;;
2023/01/01 01:23:00;;;;;;;0.5;0.5;;;;;;;14.6;100.0;100620;;;;
2023/01/01 01:24:01;;;;;;;0.5;0.5;;;;;;;14.6;100.0;100620;;;;
2023/01/01 01:25:00;;;;;;;0.5;0.5;;;;;;;14.6;100.0;100620;;;;
2023/01/01 01:26:10;;;;;;;0.5;0.5;;;;;;;14.5;100.0;100610;;;;
2023/01/01 01:27:00;;;;;;;0.5;0.5;;;;;;;14.5;100.0;100610;;;;
2023/01/01 01:28:00;;;;;;;0.5;0.5;;;;;;;14.6;100.0;100600;;;;
2023/01/01 01:29:01;;;;;;;0.5;0.5;;;;;;;14.6;100.0;100600;;;;
2023/01/01 01:30:00;;;;;;;0.5;0.5;;;;;;;14.5;100.0;100600;;;;
2023/01/01 01:31:00;;;;;;;0.5;0.5;;;;;;;14.5;100.0;100600;;;;
2023/01/01 01:32:00;;;;;;;0.5;0.5;;;;;;;14.5;100.0;100600;;;;
2023/01/01 01:33:00;;;;;;;0.5;0.5;;;;;;;14.5;100.0;100600;;;;
2023/01/01 01:34:01;;;;;;;0.5;0.5;;;;;;;14.5;100.0;100610;;;;
2023/01/01 01:35:00;;;;;;;0.5;0.5;;;;;;;14.5;100.0;100610;;;;
2023/01/01 01:36:01;;;;;;;0.5;0.5;;;;;;;14.5;100.0;100620;;;;
2023/01/01 01:37:00;;;;;;;0.5;0.5;;;;;;;14.5;100.0;100620;;;;
2023/01/01 01:38:01;;;;;;;0.5;0.5;;;;;;;14.4;100.0;100610;;;;
2023/01/01 01:39:00;;;;;;;0.5;0.5;;;;;;;14.4;100.0;100610;;;;
2023/01/01 01:40:00;;;;;;;0.4;0.4;;;;;;;14.4;100.0;100630;;;;
2023/01/01 01:41:00;;;;;;;0.4;0.4;;;;;;;14.4;100.0;100630;;;;
2023/01/01 01:42:02;;;;;;;0.4;0.4;;;;;;;14.5;100.0;100640;;;;
2023/01/01 01:43:00;;;;;;;0.4;0.4;;;;;;;14.5;100.0;100640;;;;
2023/01/01 01:44:01;;;;;;;0.4;0.4;;;;;;;14.4;100.0;100630;;;;
2023/01/01 01:45:01;;;;;;;0.4;0.4;;;;;;;14.4;100.0;100630;;;;
2023/01/01 01:46:04;;;;;;;0.4;0.4;;;;;;;14.5;100.0;100640;;;;
2023/01/01 01:47:01;;;;;;;0.4;0.4;;;;;;;14.5;100.0;100640;;;;
2023/01/01 01:48:00;;;;;;;0.4;0.4;;;;;;;14.5;100.0;100640;;;;
2023/01/01 01:49:03;;;;;;;0.4;0.4;;;;;;;14.5;100.0;100640;;;;
2023/01/01 01:50:00;;;;;;;0.4;0.4;;;;;;;14.5;100.0;100640;;;;
2023/01/01 01:51:00;;;;;;;0.4;0.4;;;;;;;14.5;100.0;100640;;;;
2023/01/01 01:52:00;;;;;;;0.4;0.4;;;;;;;14.5;100.0;100630;;;;
2023/01/01 01:53:06;;;;;;;0.4;0.4;;;;;;;14.5;100.0;100630;;;;
2023/01/01 01:54:02;;;;;;;0.4;0.4;;;;;;;14.5;100.0;100610;;;;
2023/01/01 01:55:02;;;;;;;0.4;0.4;;;;;;;14.5;100.0;100610;;;;
2023/01/01 01:56:02;;;;;;;0.4;0.4;;;;;;;14.4;100.0;100620;;;;
2023/01/01 01:57:04;;;;;;;0.4;0.4;;;;;;;14.4;100.0;100620;;;;
2023/01/01 01:58:01;;;;;;;0.4;0.4;;;;;;;14.4;100.0;100640;;;;
2023/01/01 01:59:01;;;;;;;0.4;0.4;;;;;;;14.4;100.0;100640;;;;
2023/01/01 02:00:10;;;;;;;1.0;1.0;;;;;;;14.5;100.0;100650;;;;
2023/01/01 02:01:01;;;;;;;1.0;1.0;;;;;;;14.5;100.0;100650;;;;
2023/01/01 02:02:01;;;;;;;1.0;1.0;;;;;;;14.4;100.0;100650;;;;
2023/01/01 02:03:05;;;;;;;1.0;1.0;;;;;;;14.4;100.0;100650;;;;
2023/01/01 02:04:01;;;;;;;1.0;1.0;;;;;;;14.4;100.0;100650;;;;
2023/01/01 02:05:01;;;;;;;1.0;1.0;;;;;;;14.4;100.0;100650;;;;
2023/01/01 02:06:01;;;;;;;1.0;1.0;;;;;;;14.4;100.0;100650;;;;
2023/01/01 02:07:00;;;;;;;1.0;1.0;;;;;;;14.4;100.0;100650;;;;
2023/01/01 02:08:02;;;;;;;1.0;1.0;;;;;;;14.4;100.0;100650;;;;
2023/01/01 02:09:01;;;;;;;1.0;1.0;;;;;;;14.4;100.0;100650;;;;
2023/01/01 02:10:01;;;;;;;1.0;1.0;;;;;;;14.3;100.0;100650;;;;
2023/01/01 02:11:00;;;;;;;1.0;1.0;;;;;;;14.3;100.0;100650;;;;
2023/01/01 02:12:00;;;;;;;1.0;1.0;;;;;;;14.3;100.0;100660;;;;
2023/01/01 02:13:00;;;;;;;1.0;1.0;;;;;;;14.3;100.0;100660;;;;
2023/01/01 02:14:01;;;;;;;1.0;1.0;;;;;;;14.4;100.0;100660;;;;
2023/01/01 02:15:01;;;;;;;1.0;1.0;;;;;;;14.4;100.0;100660;;;;
2023/01/01 02:16:04;;;;;;;1.0;1.0;;;;;;;14.3;100.0;100680;;;;
2023/01/01 02:17:06;;;;;;;1.0;1.0;;;;;;;14.3;100.0;100680;;;;
2023/01/01 02:18:05;;;;;;;1.0;1.0;;;;;;;14.2;100.0;100670;;;;
2023/01/01 02:19:08;;;;;;;1.0;1.0;;;;;;;14.2;100.0;100670;;;;
2023/01/01 02:20:00;;;;;;;1.0;1.0;;;;;;;14.2;100.0;100680;;;;
2023/01/01 02:21:06;;;;;;;1.0;1.0;;;;;;;14.2;100.0;100680;;;;
2023/01/01 02:22:06;;;;;;;1.0;1.0;;;;;;;14.2;100.0;100680;;;;
2023/01/01 02:23:05;;;;;;;1.0;1.0;;;;;;;14.2;100.0;100680;;;;
2023/01/01 02:24:05;;;;;;;1.0;1.0;;;;;;;14.2;100.0;100670;;;;
2023/01/01 02:25:01;;;;;;;1.0;1.0;;;;;;;14.2;100.0;100670;;;;
2023/01/01 02:26:01;;;;;;;1.0;1.0;;;;;;;14.2;100.0;100680;;;;
2023/01/01 02:27:10;;;;;;;1.0;1.0;;;;;;;14.2;100.0;100680;;;;
2023/01/01 02:28:11;;;;;;;1.0;1.0;;;;;;;14.2;100.0;100670;;;;
2023/01/01 02:29:05;;;;;;;1.0;1.0;;;;;;;14.2;100.0;100670;;;;
2023/01/01 02:30:04;;;;;;;1.0;1.0;;;;;;;14.1;100.0;100680;;;;
2023/01/01 02:31:00;;;;;;;1.0;1.0;;;;;;;14.1;100.0;100680;;;;
2023/01/01 02:32:03;;;;;;;1.0;1.0;;;;;;;14.2;100.0;100670;;;;
2023/01/01 02:33:04;;;;;;;1.0;1.0;;;;;;;14.2;100.0;100670;;;;
2023/01/01 02:34:03;;;;;;;1.0;1.0;;;;;;;14.2;100.0;100660;;;;
2023/01/01 02:35:33;;;;;;;1.0;1.0;;;;;;;14.2;100.0;100660;;;;
2023/01/01 02:36:02;;;;;;;1.0;1.0;;;;;;;14.2;100.0;100660;;;;
2023/01/01 02:37:02;;;;;;;1.0;1.0;;;;;;;14.2;100.0;100660;;;;
2023/01/01 02:38:04;;;;;;;1.0;1.0;;;;;;;14.1;100.0;100660;;;;
2023/01/01 02:39:03;;;;;;;1.0;1.0;;;;;;;14.1;100.0;100660;;;;
2023/01/01 02:40:01;;;;;;;0.5;0.5;;;;;;;14.2;100.0;100660;;;;
2023/01/01 02:41:04;;;;;;;0.5;0.5;;;;;;;14.2;100.0;100660;;;;
2023/01/01 02:42:02;;;;;;;0.5;0.5;;;;;;;14.1;100.0;100670;;;;
2023/01/01 02:43:01;;;;;;;0.5;0.5;;;;;;;14.1;100.0;100670;;;;
2023/01/01 02:44:01;;;;;;;0.5;0.5;;;;;;;14.1;100.0;100670;;;;
2023/01/01 02:45:01;;;;;;;0.5;0.5;;;;;;;14.1;100.0;100670;;;;
2023/01/01 02:46:04;;;;;;;0.5;0.5;;;;;;;14.1;100.0;100660;;;;
2023/01/01 02:47:09;;;;;;;0.5;0.5;;;;;;;14.1;100.0;100660;;;;
2023/01/01 02:48:04;;;;;;;0.5;0.5;;;;;;;14.1;100.0;100660;;;;
2023/01/01 02:49:09;;;;;;;0.5;0.5;;;;;;;14.1;100.0;100660;;;;
2023/01/01 02:50:04;;;;;;;0.5;0.5;;;;;;;14.1;100.0;100670;;;;
2023/01/01 02:51:03;;;;;;;0.5;0.5;;;;;;;14.1;100.0;100670;;;;
2023/01/01 02:52:03;;;;;;;0.5;0.5;;;;;;;14.0;100.0;100670;;;;
2023/01/01 02:53:10;;;;;;;0.5;0.5;;;;;;;14.0;100.0;100670;;;;
2023/01/01 02:54:10;;;;;;;0.5;0.5;;;;;;;14.1;100.0;100660;;;;
2023/01/01 02:55:05;;;;;;;0.5;0.5;;;;;;;14.1;100.0;100660;;;;
2023/01/01 02:56:07;;;;;;;0.5;0.5;;;;;;;14.1;100.0;100670;;;;
2023/01/01 02:57:01;;;;;;;0.5;0.5;;;;;;;14.1;100.0;100670;;;;
2023/01/01 03:00:18;;;;;;;0.5;0.5;;;;;;;14.1;100.0;100670;;;;
2023/01/01 03:01:10;;;;;;;0.5;0.5;;;;;;;14.1;100.0;100690;;;;
2023/01/01 03:02:09;;;;;;;0.5;0.5;;;;;;;14.1;100.0;100680;;;;
2023/01/01 03:03:10;;;;;;;0.5;0.5;;;;;;;14.1;100.0;100680;;;;
2023/01/01 03:04:08;;;;;;;0.5;0.5;;;;;;;14.1;100.0;100690;;;;
2023/01/01 03:05:10;;;;;;;0.5;0.5;;;;;;;14.1;100.0;100690;;;;
2023/01/01 03:07:11;;;;;;;0.5;0.5;;;;;;;14.1;100.0;100690;;;;
2023/01/01 03:08:00;;;;;;;0.5;0.5;;;;;;;14.0;100.0;100690;;;;
2023/01/01 03:09:01;;;;;;;0.5;0.5;;;;;;;14.0;100.0;100690;;;;
2023/01/01 03:10:04;;;;;;;0.5;0.5;;;;;;;14.0;100.0;100690;;;;
2023/01/01 03:11:04;;;;;;;0.5;0.5;;;;;;;14.0;100.0;100690;;;;
2023/01/01 03:12:00;;;;;;;0.5;0.5;;;;;;;14.0;100.0;100690;;;;
2023/01/01 03:13:00;;;;;;;0.5;0.5;;;;;;;14.0;100.0;100690;;;;
2023/01/01 03:14:10;;;;;;;0.5;0.5;;;;;;;13.9;100.0;100700;;;;
2023/01/01 03:15:05;;;;;;;0.5;0.5;;;;;;;13.9;100.0;100700;;;;
2023/01/01 03:16:07;;;;;;;0.5;0.5;;;;;;;13.9;100.0;100700;;;;
2023/01/01 03:17:06;;;;;;;0.5;0.5;;;;;;;13.9;100.0;100700;;;;
2023/01/01 03:18:04;;;;;;;0.5;0.5;;;;;;;13.9;100.0;100700;;;;
2023/01/01 03:19:13;;;;;;;0.6;0.6;;;;;;;13.9;100.0;100700;;;;
2023/01/01 03:20:03;;;;;;;0.6;0.6;;;;;;;13.9;100.0;100700;;;;
2023/01/01 03:21:02;;;;;;;0.6;0.6;;;;;;;13.9;100.0;100700;;;;
2023/01/01 03:22:03;;;;;;;0.6;0.6;;;;;;;13.9;100.0;100700;;;;
2023/01/01 03:23:05;;;;;;;0.6;0.6;;;;;;;13.9;100.0;100700;;;;
2023/01/01 03:24:00;;;;;;;0.6;0.6;;;;;;;13.9;100.0;100700;;;;
2023/01/01 03:25:05;;;;;;;0.6;0.6;;;;;;;13.9;100.0;100700;;;;
2023/01/01 03:26:04;;;;;;;0.6;0.6;;;;;;;13.9;100.0;100710;;;;
2023/01/01 03:27:06;;;;;;;0.6;0.6;;;;;;;13.9;100.0;100710;;;;
2023/01/01 03:28:04;;;;;;;0.6;0.6;;;;;;;14.0;100.0;100710;;;;
2023/01/01 03:29:03;;;;;;;0.6;0.6;;;;;;;14.0;100.0;100710;;;;
2023/01/01 03:30:03;;;;;;;0.6;0.6;;;;;;;14.0;100.0;100700;;;;
2023/01/01 03:31:01;;;;;;;0.6;0.6;;;;;;;14.0;100.0;100700;;;;
2023/01/01 03:32:02;;;;;;;0.6;0.6;;;;;;;14.0;100.0;100710;;;;
2023/01/01 03:33:04;;;;;;;0.6;0.6;;;;;;;14.0;100.0;100710;;;;
2023/01/01 03:34:02;;;;;;;0.6;0.6;;;;;;;14.0;100.0;100710;;;;
2023/01/01 03:35:00;;;;;;;0.6;0.6;;;;;;;14.0;100.0;100710;;;;
2023/01/01 03:36:08;;;;;;;0.6;0.6;;;;;;;14.0;100.0;100710;;;;
2023/01/01 03:37:03;;;;;;;0.6;0.6;;;;;;;14.0;100.0;100710;;;;
2023/01/01 03:38:02;;;;;;;0.6;0.6;;;;;;;14.0;100.0;100710;;;;
2023/01/01 03:39:05;;;;;;;0.4;0.4;;;;;;;14.0;100.0;100710;;;;
2023/01/01 03:40:01;;;;;;;0.4;0.4;;;;;;;14.0;100.0;100710;;;;
2023/01/01 03:41:02;;;;;;;0.4;0.4;;;;;;;14.0;100.0;100710;;;;
2023/01/01 03:42:09;;;;;;;0.4;0.4;;;;;;;14.0;100.0;100700;;;;
2023/01/01 03:43:05;;;;;;;0.4;0.4;;;;;;;14.0;100.0;100700;;;;
2023/01/01 03:44:04;;;;;;;0.4;0.4;;;;;;;13.9;100.0;100710;;;;
2023/01/01 03:45:04;;;;;;;0.4;0.4;;;;;;;13.9;100.0;100710;;;;
2023/01/01 03:46:02;;;;;;;0.4;0.4;;;;;;;13.9;100.0;100710;;;;
2023/01/01 03:47:01;;;;;;;0.4;0.4;;;;;;;13.9;100.0;100710;;;;
2023/01/01 03:48:00;;;;;;;0.4;0.4;;;;;;;14.0;100.0;100710;;;;
2023/01/01 03:49:04;;;;;;;0.4;0.4;;;;;;;14.0;100.0;100710;;;;
2023/01/01 03:50:02;;;;;;;0.4;0.4;;;;;;;14.0;100.0;100720;;;;
2023/01/01 03:51:07;;;;;;;0.4;0.4;;;;;;;14.0;100.0;100720;;;;
2023/01/01 03:52:03;;;;;;;0.4;0.4;;;;;;;13.9;100.0;100720;;;;
2023/01/01 03:53:01;;;;;;;0.4;0.4;;;;;;;13.9;100.0;100720;;;;
2023/01/01 03:54:06;;;;;;;0.4;0.4;;;;;;;13.9;100.0;100730;;;;
2023/01/01 03:55:10;;;;;;;0.4;0.4;;;;;;;13.9;100.0;100730;;;;
2023/01/01 03:56:01;;;;;;;0.4;0.4;;;;;;;13.9;100.0;100740;;;;
2023/01/01 03:57:05;;;;;;;0.4;0.4;;;;;;;13.9;100.0;100740;;;;
2023/01/01 03:58:10;;;;;;;0.4;0.4;;;;;;;13.8;100.0;100740;;;;
2023/01/01 03:59:08;;;;;;;0.5;0.5;;;;;;;13.8;100.0;100740;;;;
2023/01/01 04:00:01;;;;;;;0.5;0.5;;;;;;;13.9;100.0;100730;;;;
2023/01/01 04:01:07;;;;;;;0.5;0.5;;;;;;;13.9;100.0;100730;;;;
2023/01/01 04:02:03;;;;;;;0.5;0.5;;;;;;;13.9;100.0;100730;;;;
2023/01/01 04:03:03;;;;;;;0.5;0.5;;;;;;;13.9;100.0;100730;;;;
2023/01/01 04:04:03;;;;;;;0.5;0.5;;;;;;;13.9;100.0;100740;;;;
2023/01/01 04:05:02;;;;;;;0.5;0.5;;;;;;;13.9;100.0;100740;;;;
2023/01/01 04:06:01;;;;;;;0.5;0.5;;;;;;;13.8;100.0;100740;;;;
2023/01/01 04:07:10;;;;;;;0.5;0.5;;;;;;;13.8;100.0;100740;;;;
2023/01/01 04:08:01;;;;;;;0.5;0.5;;;;;;;13.9;100.0;100730;;;;
2023/01/01 04:09:02;;;;;;;0.5;0.5;;;;;;;13.9;100.0;100730;;;;
2023/01/01 04:10:01;;;;;;;0.5;0.5;;;;;;;14.0;100.0;100730;;;;
2023/01/01 04:12:00;;;;;;;0.5;0.5;;;;;;;14.0;100.0;100730;;;;
2023/01/01 04:12:00;;;;;;;0.5;0.5;;;;;;;14.0;100.0;100740;;;;
2023/01/01 04:13:02;;;;;;;0.5;0.5;;;;;;;14.0;100.0;100740;;;;
2023/01/01 04:14:00;;;;;;;0.5;0.5;;;;;;;13.9;100.0;100740;;;;
2023/01/01 04:15:00;;;;;;;0.5;0.5;;;;;;;13.9;100.0;100740;;;;
2023/01/01 04:16:00;;;;;;;0.5;0.5;;;;;;;13.9;100.0;100740;;;;
2023/01/01 04:17:01;;;;;;;0.5;0.5;;;;;;;13.9;100.0;100740;;;;
2023/01/01 04:18:01;;;;;;;0.5;0.5;;;;;;;14.0;100.0;100740;;;;
2023/01/01 04:19:00;;;;;;;0.4;0.4;;;;;;;14.0;100.0;100740;;;;
2023/01/01 04:20:00;;;;;;;0.4;0.4;;;;;;;13.9;100.0;100750;;;;
2023/01/01 04:21:00;;;;;;;0.4;0.4;;;;;;;13.9;100.0;100750;;;;
2023/01/01 04:22:01;;;;;;;0.4;0.4;;;;;;;14.0;100.0;100740;;;;
2023/01/01 04:23:01;;;;;;;0.4;0.4;;;;;;;14.0;100.0;100740;;;;
2023/01/01 04:24:00;;;;;;;0.4;0.4;;;;;;;14.0;100.0;100750;;;;
2023/01/01 04:25:01;;;;;;;0.4;0.4;;;;;;;14.0;100.0;100750;;;;
2023/01/01 04:26:00;;;;;;;0.4;0.4;;;;;;;14.0;100.0;100750;;;;
2023/01/01 04:27:00;;;;;;;0.4;0.4;;;;;;;14.0;100.0;100750;;;;
2023/01/01 04:28:02;;;;;;;0.4;0.4;;;;;;;13.9;100.0;100760;;;;
2023/01/01 04:29:00;;;;;;;0.4;0.4;;;;;;;13.9;100.0;100760;;;;
2023/01/01 04:30:00;;;;;;;0.4;0.4;;;;;;;13.9;100.0;100750;;;;
2023/01/01 04:31:01;;;;;;;0.4;0.4;;;;;;;13.9;100.0;100750;;;;
2023/01/01 04:32:00;;;;;;;0.4;0.4;;;;;;;13.9;100.0;100750;;;;
2023/01/01 04:33:00;;;;;;;0.4;0.4;;;;;;;13.9;100.0;100750;;;;
2023/01/01 04:34:00;;;;;;;0.4;0.4;;;;;;;13.9;100.0;100750;;;;
2023/01/01 04:35:00;;;;;;;0.4;0.4;;;;;;;13.9;100.0;100750;;;;
2023/01/01 04:36:03;;;;;;;0.4;0.4;;;;;;;13.9;100.0;100740;;;;
2023/01/01 04:37:00;;;;;;;0.4;0.4;;;;;;;13.9;100.0;100740;;;;
2023/01/01 04:38:02;;;;;;;0.4;0.4;;;;;;;13.8;100.0;100740;;;;
2023/01/01 04:39:01;;;;;;;0.5;0.5;;;;;;;13.8;100.0;100740;;;;
2023/01/01 04:40:00;;;;;;;0.5;0.5;;;;;;;13.9;100.0;100730;;;;
2023/01/01 04:41:01;;;;;;;0.5;0.5;;;;;;;13.9;100.0;100730;;;;
2023/01/01 04:42:00;;;;;;;0.5;0.5;;;;;;;13.9;100.0;100740;;;;
2023/01/01 04:43:00;;;;;;;0.5;0.5;;;;;;;13.9;100.0;100740;;;;
2023/01/01 04:44:01;;;;;;;0.5;0.5;;;;;;;13.9;100.0;100750;;;;
2023/01/01 04:45:00;;;;;;;0.5;0.5;;;;;;;13.9;100.0;100750;;;;
2023/01/01 04:46:02;;;;;;;0.5;0.5;;;;;;;13.8;100.0;100750;;;;
2023/01/01 04:47:00;;;;;;;0.5;0.5;;;;;;;13.8;100.0;100750;;;;
2023/01/01 04:48:04;;;;;;;0.5;0.5;;;;;;;13.8;100.0;100750;;;;
2023/01/01 04:49:00;;;;;;;0.5;0.5;;;;;;;13.8;100.0;100760;;;;
2023/01/01 04:50:00;;;;;;;0.5;0.5;;;;;;;13.8;100.0;100770;;;;
2023/01/01 04:51:02;;;;;;;0.5;0.5;;;;;;;13.8;100.0;100770;;;;
2023/01/01 04:52:00;;;;;;;0.5;0.5;;;;;;;13.8;100.0;100760;;;;
2023/01/01 04:53:00;;;;;;;0.5;0.5;;;;;;;13.8;100.0;100760;;;;
2023/01/01 04:54:01;;;;;;;0.5;0.5;;;;;;;13.9;100.0;100750;;;;
2023/01/01 04:55:00;;;;;;;0.5;0.5;;;;;;;13.9;100.0;100750;;;;
2023/01/01 04:56:10;;;;;;;0.5;0.5;;;;;;;13.8;100.0;100760;;;;
2023/01/01 04:57:00;;;;;;;0.5;0.5;;;;;;;13.8;100.0;100760;;;;
2023/01/01 04:58:00;;;;;;;0.5;0.5;;;;;;;13.9;100.0;100760;;;;
2023/01/01 04:59:00;;;;;;;0.5;0.5;;;;;;;13.9;100.0;100760;;;;
2023/01/01 05:00:00;;;;;;;0.5;0.5;;;;;;;13.9;100.0;100780;;;;
2023/01/01 05:01:01;;;;;;;0.5;0.5;;;;;;;13.9;100.0;100780;;;;
2023/01/01 05:02:01;;;;;;;0.5;0.5;;;;;;;13.7;100.0;100770;;;;
2023/01/01 05:03:01;;;;;;;0.5;0.5;;;;;;;13.7;100.0;100770;;;;
2023/01/01 05:04:00;;;;;;;0.5;0.5;;;;;;;13.8;100.0;100780;;;;
2023/01/01 05:05:00;;;;;;;0.5;0.5;;;;;;;13.8;100.0;100780;;;;
2023/01/01 05:06:09;;;;;;;0.5;0.5;;;;;;;13.8;100.0;100780;;;;
2023/01/01 05:07:00;;;;;;;0.5;0.5;;;;;;;13.8;100.0;100780;;;;
2023/01/01 05:08:00;;;;;;;0.5;0.5;;;;;;;13.8;100.0;100770;;;;
2023/01/01 05:09:02;;;;;;;0.5;0.5;;;;;;;13.8;100.0;100770;;;;
2023/01/01 05:10:00;;;;;;;0.5;0.5;;;;;;;13.9;100.0;100780;;;;
2023/01/01 05:11:02;;;;;;;0.5;0.5;;;;;;;13.9;100.0;100780;;;;
2023/01/01 05:12:00;;;;;;;0.5;0.5;;;;;;;13.9;100.0;100800;;;;
2023/01/01 05:13:00;;;;;;;0.5;0.5;;;;;;;13.9;100.0;100800;;;;
2023/01/01 05:14:00;;;;;;;0.5;0.5;;;;;;;13.8;100.0;100800;;;;
2023/01/01 05:15:00;;;;;;;0.5;0.5;;;;;;;13.8;100.0;100800;;;;
2023/01/01 05:16:02;;;;;;;0.5;0.5;;;;;;;13.8;100.0;100800;;;;
2023/01/01 05:17:00;;;;;;;0.5;0.5;;;;;;;13.8;100.0;100800;;;;
2023/01/01 05:18:00;;;;;;;0.5;0.5;;;;;;;13.7;100.0;100800;;;;
2023/01/01 05:19:01;;;;;;;0.5;0.5;;;;;;;13.7;100.0;100800;;;;
2023/01/01 05:20:00;;;;;;;0.5;0.5;;;;;;;13.9;100.0;100800;;;;
2023/01/01 05:21:01;;;;;;;0.5;0.5;;;;;;;13.9;100.0;100800;;;;
2023/01/01 05:22:08;;;;;;;0.5;0.5;;;;;;;13.9;100.0;100800;;;;
2023/01/01 05:23:00;;;;;;;0.5;0.5;;;;;;;13.9;100.0;100800;;;;
2023/01/01 05:24:02;;;;;;;0.5;0.5;;;;;;;13.9;100.0;100800;;;;
2023/01/01 05:25:00;;;;;;;0.5;0.5;;;;;;;13.9;100.0;100800;;;;
2023/01/01 05:26:07;;;;;;;0.5;0.5;;;;;;;13.8;100.0;100810;;;;
2023/01/01 05:27:00;;;;;;;0.5;0.5;;;;;;;13.8;100.0;100810;;;;
2023/01/01 05:28:00;;;;;;;0.5;0.5;;;;;;;13.8;100.0;100820;;;;
2023/01/01 05:29:01;;;;;;;0.5;0.5;;;;;;;13.8;100.0;100820;;;;
2023/01/01 05:30:00;;;;;;;0.5;0.5;;;;;;;13.9;100.0;100830;;;;
2023/01/01 05:31:03;;;;;;;0.5;0.5;;;;;;;13.9;100.0;100830;;;;
2023/01/01 05:32:00;;;;;;;0.5;0.5;;;;;;;13.9;100.0;100840;;;;
2023/01/01 05:33:00;;;;;;;0.5;0.5;;;;;;;13.9;100.0;100840;;;;
2023/01/01 05:34:01;;;;;;;0.5;0.5;;;;;;;13.8;100.0;100850;;;;
2023/01/01 05:35:00;;;;;;;0.5;0.5;;;;;;;13.8;100.0;100850;;;;
2023/01/01 05:36:01;;;;;;;0.5;0.5;;;;;;;13.9;100.0;100860;;;;
2023/01/01 05:37:00;;;;;;;0.5;0.5;;;;;;;13.9;100.0;100860;;;;
2023/01/01 05:38:02;;;;;;;0.5;0.5;;;;;;;13.8;100.0;100850;;;;
2023/01/01 05:39:00;;;;;;;0.4;0.4;;;;;;;13.8;100.0;100850;;;;
2023/01/01 05:40:00;;;;;;;0.4;0.4;;;;;;;13.8;100.0;100840;;;;
2023/01/01 05:41:09;;;;;;;0.4;0.4;;;;;;;13.8;100.0;100840;;;;
2023/01/01 05:42:00;;;;;;;0.4;0.4;;;;;;;13.9;100.0;100850;;;;
2023/01/01 05:43:00;;;;;;;0.4;0.4;;;;;;;13.9;100.0;100850;;;;
2023/01/01 05:44:01;;;;;;;0.4;0.4;;;;;;;13.9;100.0;100840;;;;
2023/01/01 05:45:01;;;;;;;0.4;0.4;;;;;;;13.9;100.0;100840;;;;
2023/01/01 05:46:03;;;;;;;0.4;0.4;;;;;;;13.9;100.0;100860;;;;
2023/01/01 05:47:00;;;;;;;0.4;0.4;;;;;;;13.9;100.0;100860;;;;
2023/01/01 05:48:01;;;;;;;0.4;0.4;;;;;;;13.8;100.0;100850;;;;
2023/01/01 05:49:00;;;;;;;0.4;0.4;;;;;;;13.8;100.0;100850;;;;
2023/01/01 05:50:00;;;;;;;0.4;0.4;;;;;;;13.8;100.0;100840;;;;
2023/01/01 05:51:01;;;;;;;0.4;0.4;;;;;;;13.8;100.0;100840;;;;
2023/01/01 05:52:00;;;;;;;0.4;0.4;;;;;;;13.7;100.0;100850;;;;
2023/01/01 05:53:00;;;;;;;0.4;0.4;;;;;;;13.7;100.0;100850;;;;
2023/01/01 05:54:00;;;;;;;0.4;0.4;;;;;;;13.7;100.0;100860;;;;
2023/01/01 05:55:00;;;;;;;0.4;0.4;;;;;;;13.7;100.0;100860;;;;
2023/01/01 05:56:01;;;;;;;0.4;0.4;;;;;;;13.7;100.0;100870;;;;
2023/01/01 05:57:00;;;;;;;0.4;0.4;;;;;;;13.7;100.0;100870;;;;
2023/01/01 05:58:00;;;;;;;0.4;0.4;;;;;;;13.8;100.0;100870;;;;
2023/01/01 05:59:00;;;;;;;0.5;0.5;;;;;;;13.8;100.0;100870;;;;
2023/01/01 06:00:00;;;;;;;0.5;0.5;;;;;;;13.8;100.0;100870;;;;
2023/01/01 06:01:11;;;;;;;0.5;0.5;;;;;;;13.8;100.0;100870;;;;
2023/01/01 06:02:00;;;;;;;0.5;0.5;;;;;;;13.8;100.0;100890;;;;
2023/01/01 06:03:00;;;;;;;0.5;0.5;;;;;;;13.8;100.0;100890;;;;
2023/01/01 06:04:00;;;;;;;0.5;0.5;;;;;;;13.7;100.0;100890;;;;
2023/01/01 06:05:00;;;;;;;0.5;0.5;;;;;;;13.7;100.0;100890;;;;
2023/01/01 06:06:02;;;;;;;0.5;0.5;;;;;;;13.6;100.0;100890;;;;
2023/01/01 06:07:00;;;;;;;0.5;0.5;;;;;;;13.6;100.0;100890;;;;
2023/01/01 06:08:00;;;;;;;0.5;0.5;;;;;;;13.6;100.0;100910;;;;
2023/01/01 06:09:02;;;;;;;0.5;0.5;;;;;;;13.6;100.0;100910;;;;
2023/01/01 06:10:00;;;;;;;0.5;0.5;;;;;;;13.7;100.0;100910;;;;
2023/01/01 06:11:01;;;;;;;0.5;0.5;;;;;;;13.7;100.0;100910;;;;
2023/01/01 06:12:00;;;;;;;0.5;0.5;;;;;;;13.8;100.0;100910;;;;
2023/01/01 06:13:00;;;;;;;0.5;0.5;;;;;;;13.8;100.0;100910;;;;
2023/01/01 06:14:00;;;;;;;0.5;0.5;;;;;;;13.7;100.0;100920;;;;
2023/01/01 06:15:00;;;;;;;0.5;0.5;;;;;;;13.7;100.0;100920;;;;
2023/01/01 06:16:01;;;;;;;0.5;0.5;;;;;;;13.6;100.0;100920;;;;
2023/01/01 06:17:00;;;;;;;0.5;0.5;;;;;;;13.6;100.0;100920;;;;
2023/01/01 06:18:00;;;;;;;0.5;0.5;;;;;;;13.6;100.0;100920;;;;
2023/01/01 06:19:00;;;;;;;0.5;0.5;;;;;;;13.6;100.0;100920;;;;
2023/01/01 06:20:00;;;;;;;0.5;0.5;;;;;;;13.6;100.0;100930;;;;
2023/01/01 06:21:10;;;;;;;0.5;0.5;;;;;;;13.6;100.0;100930;;;;
2023/01/01 06:22:00;;;;;;;0.5;0.5;;;;;;;13.7;100.0;100930;;;;
2023/01/01 06:23:00;;;;;;;0.5;0.5;;;;;;;13.7;100.0;100930;;;;
2023/01/01 06:24:00;;;;;;;0.5;0.5;;;;;;;13.6;100.0;100930;;;;
2023/01/01 06:25:00;;;;;;;0.5;0.5;;;;;;;13.6;100.0;100930;;;;
2023/01/01 06:26:05;;;;;;;0.5;0.5;;;;;;;13.5;100.0;100930;;;;
2023/01/01 06:27:00;;;;;;;0.5;0.5;;;;;;;13.5;100.0;100930;;;;